Plato — 8PRX — position and weather

sailwx.info

Track history (hours):
 
Tides and Currents Weather Stations Pressure Air Temp Water Temp Dewpoint Dewpoint Depression Visibility Wind Speed Wind Dir Waves Ship Positions

Plato

Last reported at 2017-Apr-25 12:01 UTC. Time now 2017-Apr-25 12:18 UTC.
Position N 55°54' W 001°51'.

Length 89 m; draft 5.2 m.

Type: Cargo ship. MMSI: 314189000.

Date/timePositionNaut miles runAvg speedWind from/ knotsBaromVisibWave heightAir tempDewpointWater temp
2017-Apr-25 12:01N 55°54' W 001°51'3 5.5
2017-Apr-25 11:30N 55°52' W 001°47'3 5.5
2017-Apr-25 10:58N 55°51' W 001°42'293 6.6
2017-Apr-23 14:53N 51°35' E 002°20'8 9.3
2017-Apr-23 14:00N 51°29' E 002°11'5 9.7
2017-Apr-23 13:30N 51°26' E 002°06'5 9.7
2017-Apr-23 13:01N 51°22' E 002°01'510.0
2017-Apr-23 12:30N 51°18' E 001°56'510.1
2017-Apr-23 12:00N 51°14' E 001°51'510.4
2017-Apr-23 11:30N 51°10' E 001°45'510.9
2017-Apr-23 11:01N 51°06' E 001°40'611.3
2017-Apr-23 10:30N 51°02' E 001°34'179 9.4
2017-Apr-22 15:22N 49°51' W 002°44'410.6
2017-Apr-22 15:00N 49°50' W 002°50'1310.1
2017-Apr-22 13:44N 49°44' W 003°08'2 9.9
2017-Apr-22 13:30N 49°43' W 003°11'5 9.8
2017-Apr-22 13:00N 49°41' W 003°18'86 8.7
2017-Apr-22 03:08N 48°56' W 005°10'23 9.1
2017-Apr-22 00:35N 48°42' W 005°39'8 9.8
2017-Apr-21 23:49N 48°35' W 005°43'47 9.3
2017-Apr-21 18:43N 47°52' W 006°12'  
2017-Apr-16 07:49N 43°48' W 006°12'10 9.6
2017-Apr-16 06:46N 43°49' W 005°58'3 9.8
2017-Apr-16 06:27N 43°49' W 005°54'4 9.6
2017-Apr-16 05:59N 43°49' W 005°47'7 9.7
2017-Apr-16 05:15N 43°48' W 005°38'3 9.2
2017-Apr-16 04:59N 43°48' W 005°34'5 9.3
2017-Apr-16 04:30N 43°47' W 005°28'8 9.5
2017-Apr-16 03:38N 43°47' W 005°17'  
Track history (hours):
 
Tides and Currents Weather Stations Pressure Air Temp Water Temp Dewpoint Dewpoint Depression Visibility Wind Speed Wind Dir Waves Ship Positions

Plato

Last reported at 2017-Apr-25 12:01 UTC. Time now 2017-Apr-25 12:18 UTC.
Position N 55°54' W 001°51'.

Length 89 m; draft 5.2 m.

Type: Cargo ship. MMSI: 314189000.

Date/timePositionNaut miles runAvg speedWind from/ knotsBaromVisibWave heightAir tempDewpointWater temp
2017-Apr-25 12:01N 55°54' W 001°51'3 5.5
2017-Apr-25 11:30N 55°52' W 001°47'3 5.5
2017-Apr-25 10:58N 55°51' W 001°42'293 6.6
2017-Apr-23 14:53N 51°35' E 002°20'8 9.3
2017-Apr-23 14:00N 51°29' E 002°11'5 9.7
2017-Apr-23 13:30N 51°26' E 002°06'5 9.7
2017-Apr-23 13:01N 51°22' E 002°01'510.0
2017-Apr-23 12:30N 51°18' E 001°56'510.1
2017-Apr-23 12:00N 51°14' E 001°51'510.4
2017-Apr-23 11:30N 51°10' E 001°45'510.9
2017-Apr-23 11:01N 51°06' E 001°40'611.3
2017-Apr-23 10:30N 51°02' E 001°34'179 9.4
2017-Apr-22 15:22N 49°51' W 002°44'410.6
2017-Apr-22 15:00N 49°50' W 002°50'1310.1
2017-Apr-22 13:44N 49°44' W 003°08'2 9.9
2017-Apr-22 13:30N 49°43' W 003°11'5 9.8
2017-Apr-22 13:00N 49°41' W 003°18'86 8.7
2017-Apr-22 03:08N 48°56' W 005°10'23 9.1
2017-Apr-22 00:35N 48°42' W 005°39'8 9.8
2017-Apr-21 23:49N 48°35' W 005°43'47 9.3
2017-Apr-21 18:43N 47°52' W 006°12'  
2017-Apr-16 07:49N 43°48' W 006°12'10 9.6
2017-Apr-16 06:46N 43°49' W 005°58'3 9.8
2017-Apr-16 06:27N 43°49' W 005°54'4 9.6
2017-Apr-16 05:59N 43°49' W 005°47'7 9.7
2017-Apr-16 05:15N 43°48' W 005°38'3 9.2
2017-Apr-16 04:59N 43°48' W 005°34'5 9.3
2017-Apr-16 04:30N 43°47' W 005°28'8 9.5
2017-Apr-16 03:38N 43°47' W 005°17'  

Dump ship's entire track history